sensor_id;sensor_type;location;lat;lon;timestamp;P1;durP1;ratioP1;P2;durP2;ratioP2
8737;SDS011;4405;49.272;8.590;2024-03-29T00:00:49;2.40;;;1.80;;
8737;SDS011;4405;49.272;8.590;2024-03-29T00:03:15;4.37;;;1.80;;
8737;SDS011;4405;49.272;8.590;2024-03-29T00:05:40;2.47;;;1.70;;
8737;SDS011;4405;49.272;8.590;2024-03-29T00:08:06;2.00;;;1.90;;
8737;SDS011;4405;49.272;8.590;2024-03-29T00:10:32;3.33;;;1.90;;
8737;SDS011;4405;49.272;8.590;2024-03-29T00:12:59;3.00;;;1.70;;
8737;SDS011;4405;49.272;8.590;2024-03-29T00:15:25;1.87;;;1.67;;
8737;SDS011;4405;49.272;8.590;2024-03-29T00:17:50;1.90;;;1.80;;
8737;SDS011;4405;49.272;8.590;2024-03-29T00:20:16;2.10;;;1.80;;
8737;SDS011;4405;49.272;8.590;2024-03-29T00:22:41;3.57;;;1.97;;
8737;SDS011;4405;49.272;8.590;2024-03-29T00:25:07;2.10;;;1.70;;
8737;SDS011;4405;49.272;8.590;2024-03-29T00:27:32;2.40;;;1.90;;
8737;SDS011;4405;49.272;8.590;2024-03-29T00:29:59;3.40;;;1.50;;
8737;SDS011;4405;49.272;8.590;2024-03-29T00:32:25;2.37;;;1.63;;
8737;SDS011;4405;49.272;8.590;2024-03-29T00:34:50;2.47;;;1.63;;
8737;SDS011;4405;49.272;8.590;2024-03-29T00:37:16;2.00;;;1.40;;
8737;SDS011;4405;49.272;8.590;2024-03-29T00:39:42;2.30;;;1.50;;
8737;SDS011;4405;49.272;8.590;2024-03-29T00:42:07;1.07;;;1.07;;
8737;SDS011;4405;49.272;8.590;2024-03-29T00:44:33;1.83;;;1.60;;
8737;SDS011;4405;49.272;8.590;2024-03-29T00:46:59;1.80;;;1.53;;
8737;SDS011;4405;49.272;8.590;2024-03-29T00:49:25;1.97;;;1.37;;
8737;SDS011;4405;49.272;8.590;2024-03-29T00:51:50;1.43;;;1.33;;
8737;SDS011;4405;49.272;8.590;2024-03-29T00:54:16;1.77;;;1.37;;
8737;SDS011;4405;49.272;8.590;2024-03-29T00:56:41;1.83;;;1.43;;
8737;SDS011;4405;49.272;8.590;2024-03-29T00:59:06;1.33;;;1.23;;
8737;SDS011;4405;49.272;8.590;2024-03-29T01:01:32;2.00;;;1.90;;
8737;SDS011;4405;49.272;8.590;2024-03-29T01:03:59;2.00;;;1.90;;
8737;SDS011;4405;49.272;8.590;2024-03-29T01:06:24;2.40;;;2.20;;
8737;SDS011;4405;49.272;8.590;2024-03-29T01:08:49;2.40;;;1.80;;
8737;SDS011;4405;49.272;8.590;2024-03-29T01:11:15;3.10;;;1.93;;
8737;SDS011;4405;49.272;8.590;2024-03-29T01:13:40;1.80;;;1.70;;
8737;SDS011;4405;49.272;8.590;2024-03-29T01:16:06;1.70;;;1.40;;
8737;SDS011;4405;49.272;8.590;2024-03-29T01:18:31;2.13;;;1.50;;
8737;SDS011;4405;49.272;8.590;2024-03-29T01:20:58;1.97;;;1.73;;
8737;SDS011;4405;49.272;8.590;2024-03-29T01:23:23;1.97;;;1.80;;
8737;SDS011;4405;49.272;8.590;2024-03-29T01:25:49;1.80;;;1.70;;
8737;SDS011;4405;49.272;8.590;2024-03-29T01:28:14;1.63;;;1.40;;
8737;SDS011;4405;49.272;8.590;2024-03-29T01:30:40;1.70;;;1.27;;
8737;SDS011;4405;49.272;8.590;2024-03-29T01:33:05;1.83;;;1.60;;
8737;SDS011;4405;49.272;8.590;2024-03-29T01:35:31;1.73;;;1.63;;
8737;SDS011;4405;49.272;8.590;2024-03-29T01:37:57;1.80;;;1.30;;
8737;SDS011;4405;49.272;8.590;2024-03-29T01:40:23;1.57;;;1.13;;
8737;SDS011;4405;49.272;8.590;2024-03-29T01:42:52;1.07;;;0.97;;
8737;SDS011;4405;49.272;8.590;2024-03-29T01:45:18;1.00;;;1.00;;
8737;SDS011;4405;49.272;8.590;2024-03-29T01:47:44;1.37;;;1.27;;
8737;SDS011;4405;49.272;8.590;2024-03-29T01:50:11;1.83;;;1.30;;
8737;SDS011;4405;49.272;8.590;2024-03-29T01:52:37;0.80;;;0.80;;
8737;SDS011;4405;49.272;8.590;2024-03-29T01:55:06;1.40;;;1.30;;
8737;SDS011;4405;49.272;8.590;2024-03-29T01:57:32;1.30;;;1.20;;
8737;SDS011;4405;49.272;8.590;2024-03-29T01:59:59;1.00;;;0.80;;
8737;SDS011;4405;49.272;8.590;2024-03-29T02:02:25;0.80;;;0.80;;
8737;SDS011;4405;49.272;8.590;2024-03-29T02:04:51;1.20;;;1.10;;
8737;SDS011;4405;49.272;8.590;2024-03-29T02:07:18;1.90;;;1.20;;
8737;SDS011;4405;49.272;8.590;2024-03-29T02:09:43;0.90;;;0.90;;
8737;SDS011;4405;49.272;8.590;2024-03-29T02:12:11;1.50;;;0.80;;
8737;SDS011;4405;49.272;8.590;2024-03-29T02:14:37;1.30;;;0.77;;
8737;SDS011;4405;49.272;8.590;2024-03-29T02:17:05;0.80;;;0.80;;
8737;SDS011;4405;49.272;8.590;2024-03-29T02:19:32;1.13;;;1.10;;
8737;SDS011;4405;49.272;8.590;2024-03-29T02:21:59;0.90;;;0.87;;
8737;SDS011;4405;49.272;8.590;2024-03-29T02:24:27;0.73;;;0.73;;
8737;SDS011;4405;49.272;8.590;2024-03-29T02:26:54;0.77;;;0.77;;
8737;SDS011;4405;49.272;8.590;2024-03-29T02:29:22;1.30;;;1.20;;
8737;SDS011;4405;49.272;8.590;2024-03-29T02:31:49;1.17;;;0.90;;
8737;SDS011;4405;49.272;8.590;2024-03-29T02:34:15;0.73;;;0.73;;
8737;SDS011;4405;49.272;8.590;2024-03-29T02:36:41;1.33;;;1.13;;
8737;SDS011;4405;49.272;8.590;2024-03-29T02:39:08;4.83;;;1.23;;
8737;SDS011;4405;49.272;8.590;2024-03-29T02:41:36;1.00;;;1.00;;
8737;SDS011;4405;49.272;8.590;2024-03-29T02:44:02;1.97;;;1.10;;
8737;SDS011;4405;49.272;8.590;2024-03-29T02:46:28;1.03;;;1.03;;
8737;SDS011;4405;49.272;8.590;2024-03-29T02:48:54;1.47;;;1.00;;
8737;SDS011;4405;49.272;8.590;2024-03-29T02:51:20;0.87;;;0.80;;
8737;SDS011;4405;49.272;8.590;2024-03-29T02:53:46;0.70;;;0.70;;
8737;SDS011;4405;49.272;8.590;2024-03-29T02:56:11;0.93;;;0.87;;
8737;SDS011;4405;49.272;8.590;2024-03-29T02:58:39;1.40;;;0.90;;
8737;SDS011;4405;49.272;8.590;2024-03-29T03:01:05;1.27;;;0.90;;
8737;SDS011;4405;49.272;8.590;2024-03-29T03:03:31;1.17;;;1.00;;
8737;SDS011;4405;49.272;8.590;2024-03-29T03:05:57;0.80;;;0.80;;
8737;SDS011;4405;49.272;8.590;2024-03-29T03:08:23;0.87;;;0.87;;
8737;SDS011;4405;49.272;8.590;2024-03-29T03:11:07;1.00;;;1.00;;
8737;SDS011;4405;49.272;8.590;2024-03-29T03:13:33;0.93;;;0.93;;
8737;SDS011;4405;49.272;8.590;2024-03-29T03:16:01;0.80;;;0.80;;
8737;SDS011;4405;49.272;8.590;2024-03-29T03:18:28;0.87;;;0.87;;
8737;SDS011;4405;49.272;8.590;2024-03-29T03:20:53;2.00;;;0.93;;
8737;SDS011;4405;49.272;8.590;2024-03-29T03:23:20;1.07;;;0.90;;
8737;SDS011;4405;49.272;8.590;2024-03-29T03:25:53;1.10;;;1.10;;
8737;SDS011;4405;49.272;8.590;2024-03-29T03:28:18;1.47;;;0.90;;
8737;SDS011;4405;49.272;8.590;2024-03-29T03:30:45;1.27;;;0.93;;
8737;SDS011;4405;49.272;8.590;2024-03-29T03:33:11;0.90;;;0.90;;
8737;SDS011;4405;49.272;8.590;2024-03-29T03:35:38;1.10;;;1.00;;
8737;SDS011;4405;49.272;8.590;2024-03-29T03:38:03;1.43;;;1.00;;
8737;SDS011;4405;49.272;8.590;2024-03-29T03:40:29;2.00;;;1.00;;
8737;SDS011;4405;49.272;8.590;2024-03-29T03:42:55;1.17;;;1.10;;
8737;SDS011;4405;49.272;8.590;2024-03-29T03:45:21;1.80;;;1.20;;
8737;SDS011;4405;49.272;8.590;2024-03-29T03:47:47;0.90;;;0.90;;
8737;SDS011;4405;49.272;8.590;2024-03-29T03:50:15;0.80;;;0.80;;
8737;SDS011;4405;49.272;8.590;2024-03-29T03:52:41;0.90;;;0.80;;
8737;SDS011;4405;49.272;8.590;2024-03-29T03:55:07;1.00;;;1.00;;
8737;SDS011;4405;49.272;8.590;2024-03-29T03:57:32;1.00;;;1.00;;
8737;SDS011;4405;49.272;8.590;2024-03-29T03:59:59;0.97;;;0.97;;
8737;SDS011;4405;49.272;8.590;2024-03-29T04:02:25;0.90;;;0.90;;
8737;SDS011;4405;49.272;8.590;2024-03-29T04:04:51;0.90;;;0.90;;
8737;SDS011;4405;49.272;8.590;2024-03-29T04:07:18;0.83;;;0.83;;
8737;SDS011;4405;49.272;8.590;2024-03-29T04:09:45;0.80;;;0.80;;
8737;SDS011;4405;49.272;8.590;2024-03-29T04:12:10;0.90;;;0.90;;
8737;SDS011;4405;49.272;8.590;2024-03-29T04:14:37;0.90;;;0.90;;
8737;SDS011;4405;49.272;8.590;2024-03-29T04:17:02;0.90;;;0.90;;
8737;SDS011;4405;49.272;8.590;2024-03-29T04:19:29;1.00;;;1.00;;
8737;SDS011;4405;49.272;8.590;2024-03-29T04:21:54;0.90;;;0.90;;
8737;SDS011;4405;49.272;8.590;2024-03-29T04:24:22;0.77;;;0.77;;
8737;SDS011;4405;49.272;8.590;2024-03-29T04:26:47;0.90;;;0.90;;
8737;SDS011;4405;49.272;8.590;2024-03-29T04:29:13;1.03;;;0.97;;
8737;SDS011;4405;49.272;8.590;2024-03-29T04:31:39;0.97;;;0.90;;
8737;SDS011;4405;49.272;8.590;2024-03-29T04:34:05;1.03;;;0.97;;
8737;SDS011;4405;49.272;8.590;2024-03-29T04:36:31;3.13;;;1.00;;
8737;SDS011;4405;49.272;8.590;2024-03-29T04:38:57;2.00;;;1.20;;
8737;SDS011;4405;49.272;8.590;2024-03-29T04:41:25;1.20;;;1.20;;
8737;SDS011;4405;49.272;8.590;2024-03-29T04:43:51;0.80;;;0.80;;
8737;SDS011;4405;49.272;8.590;2024-03-29T04:46:18;2.07;;;1.07;;
8737;SDS011;4405;49.272;8.590;2024-03-29T04:48:44;1.43;;;1.30;;
8737;SDS011;4405;49.272;8.590;2024-03-29T04:51:11;1.00;;;1.00;;
8737;SDS011;4405;49.272;8.590;2024-03-29T04:53:37;0.80;;;0.80;;
8737;SDS011;4405;49.272;8.590;2024-03-29T04:56:04;0.70;;;0.70;;
8737;SDS011;4405;49.272;8.590;2024-03-29T04:58:32;2.03;;;1.00;;
8737;SDS011;4405;49.272;8.590;2024-03-29T05:00:59;0.73;;;0.73;;
8737;SDS011;4405;49.272;8.590;2024-03-29T05:03:25;0.70;;;0.70;;
8737;SDS011;4405;49.272;8.590;2024-03-29T05:05:52;0.83;;;0.83;;
8737;SDS011;4405;49.272;8.590;2024-03-29T05:08:19;1.10;;;1.00;;
8737;SDS011;4405;49.272;8.590;2024-03-29T05:10:47;0.70;;;0.63;;
8737;SDS011;4405;49.272;8.590;2024-03-29T05:13:13;1.03;;;1.00;;
8737;SDS011;4405;49.272;8.590;2024-03-29T05:15:41;1.20;;;0.70;;
8737;SDS011;4405;49.272;8.590;2024-03-29T05:18:08;1.30;;;0.90;;
8737;SDS011;4405;49.272;8.590;2024-03-29T05:20:34;1.20;;;0.77;;
8737;SDS011;4405;49.272;8.590;2024-03-29T05:23:01;0.70;;;0.70;;
8737;SDS011;4405;49.272;8.590;2024-03-29T05:25:27;0.80;;;0.80;;
8737;SDS011;4405;49.272;8.590;2024-03-29T05:27:54;0.90;;;0.90;;
8737;SDS011;4405;49.272;8.590;2024-03-29T05:30:20;1.00;;;0.90;;
8737;SDS011;4405;49.272;8.590;2024-03-29T05:32:48;0.90;;;0.90;;
8737;SDS011;4405;49.272;8.590;2024-03-29T05:35:14;0.83;;;0.83;;
8737;SDS011;4405;49.272;8.590;2024-03-29T05:37:41;1.00;;;1.00;;
8737;SDS011;4405;49.272;8.590;2024-03-29T05:40:12;1.20;;;1.20;;
8737;SDS011;4405;49.272;8.590;2024-03-29T05:42:38;1.20;;;1.10;;
8737;SDS011;4405;49.272;8.590;2024-03-29T05:45:04;1.00;;;1.00;;
8737;SDS011;4405;49.272;8.590;2024-03-29T05:47:31;1.23;;;1.23;;
8737;SDS011;4405;49.272;8.590;2024-03-29T05:49:59;1.33;;;1.23;;
8737;SDS011;4405;49.272;8.590;2024-03-29T05:52:25;1.40;;;1.30;;
8737;SDS011;4405;49.272;8.590;2024-03-29T05:54:51;1.10;;;1.10;;
8737;SDS011;4405;49.272;8.590;2024-03-29T05:57:19;1.60;;;1.50;;
8737;SDS011;4405;49.272;8.590;2024-03-29T05:59:48;1.93;;;1.83;;
8737;SDS011;4405;49.272;8.590;2024-03-29T06:02:14;1.53;;;1.43;;
8737;SDS011;4405;49.272;8.590;2024-03-29T06:04:40;1.37;;;1.37;;
8737;SDS011;4405;49.272;8.590;2024-03-29T06:07:08;1.03;;;0.90;;
8737;SDS011;4405;49.272;8.590;2024-03-29T06:09:34;1.20;;;1.20;;
8737;SDS011;4405;49.272;8.590;2024-03-29T06:12:01;1.20;;;1.20;;
8737;SDS011;4405;49.272;8.590;2024-03-29T06:14:27;1.50;;;1.40;;
8737;SDS011;4405;49.272;8.590;2024-03-29T06:17:11;1.67;;;1.57;;
8737;SDS011;4405;49.272;8.590;2024-03-29T06:19:49;1.23;;;1.13;;
8737;SDS011;4405;49.272;8.590;2024-03-29T06:22:18;1.10;;;1.10;;
8737;SDS011;4405;49.272;8.590;2024-03-29T06:24:44;1.20;;;1.20;;
8737;SDS011;4405;49.272;8.590;2024-03-29T06:27:11;1.23;;;1.13;;
8737;SDS011;4405;49.272;8.590;2024-03-29T06:29:38;1.07;;;1.07;;
8737;SDS011;4405;49.272;8.590;2024-03-29T06:32:04;1.27;;;1.27;;
8737;SDS011;4405;49.272;8.590;2024-03-29T06:34:31;2.20;;;1.90;;
8737;SDS011;4405;49.272;8.590;2024-03-29T06:36:57;2.53;;;2.40;;
8737;SDS011;4405;49.272;8.590;2024-03-29T06:39:25;1.97;;;1.87;;
8737;SDS011;4405;49.272;8.590;2024-03-29T06:41:51;1.93;;;1.80;;
8737;SDS011;4405;49.272;8.590;2024-03-29T06:44:18;2.23;;;1.40;;
8737;SDS011;4405;49.272;8.590;2024-03-29T06:46:45;1.57;;;1.57;;
8737;SDS011;4405;49.272;8.590;2024-03-29T06:49:12;2.13;;;2.03;;
8737;SDS011;4405;49.272;8.590;2024-03-29T06:51:38;1.70;;;1.60;;
8737;SDS011;4405;49.272;8.590;2024-03-29T06:54:05;2.30;;;2.07;;
8737;SDS011;4405;49.272;8.590;2024-03-29T06:56:33;1.93;;;1.83;;
8737;SDS011;4405;49.272;8.590;2024-03-29T06:58:59;1.40;;;1.40;;
8737;SDS011;4405;49.272;8.590;2024-03-29T07:01:25;1.20;;;1.20;;
8737;SDS011;4405;49.272;8.590;2024-03-29T07:03:52;1.07;;;1.07;;
8737;SDS011;4405;49.272;8.590;2024-03-29T07:06:18;2.00;;;1.90;;
8737;SDS011;4405;49.272;8.590;2024-03-29T07:08:45;2.17;;;2.07;;
8737;SDS011;4405;49.272;8.590;2024-03-29T07:11:12;2.10;;;2.00;;
8737;SDS011;4405;49.272;8.590;2024-03-29T07:13:40;1.90;;;1.80;;
8737;SDS011;4405;49.272;8.590;2024-03-29T07:16:06;1.87;;;1.77;;
8737;SDS011;4405;49.272;8.590;2024-03-29T07:18:33;1.80;;;1.70;;
8737;SDS011;4405;49.272;8.590;2024-03-29T07:20:59;1.60;;;1.50;;
8737;SDS011;4405;49.272;8.590;2024-03-29T07:23:25;2.53;;;2.20;;
8737;SDS011;4405;49.272;8.590;2024-03-29T07:25:58;2.00;;;1.90;;
8737;SDS011;4405;49.272;8.590;2024-03-29T07:28:25;2.20;;;2.10;;
8737;SDS011;4405;49.272;8.590;2024-03-29T07:30:53;1.93;;;1.83;;
8737;SDS011;4405;49.272;8.590;2024-03-29T07:33:19;1.77;;;1.70;;
8737;SDS011;4405;49.272;8.590;2024-03-29T07:35:48;3.30;;;3.00;;
8737;SDS011;4405;49.272;8.590;2024-03-29T07:38:14;5.00;;;4.70;;
8737;SDS011;4405;49.272;8.590;2024-03-29T07:40:42;6.83;;;6.23;;
8737;SDS011;4405;49.272;8.590;2024-03-29T07:43:08;5.83;;;5.43;;
8737;SDS011;4405;49.272;8.590;2024-03-29T07:45:34;5.37;;;4.87;;
8737;SDS011;4405;49.272;8.590;2024-03-29T07:48:02;3.63;;;3.43;;
8737;SDS011;4405;49.272;8.590;2024-03-29T07:50:29;1.83;;;1.73;;
8737;SDS011;4405;49.272;8.590;2024-03-29T07:52:55;2.13;;;2.03;;
8737;SDS011;4405;49.272;8.590;2024-03-29T07:55:21;2.33;;;2.23;;
8737;SDS011;4405;49.272;8.590;2024-03-29T07:57:48;2.40;;;2.20;;
8737;SDS011;4405;49.272;8.590;2024-03-29T08:00:15;2.07;;;1.97;;
8737;SDS011;4405;49.272;8.590;2024-03-29T08:02:42;1.60;;;1.60;;
8737;SDS011;4405;49.272;8.590;2024-03-29T08:05:09;1.53;;;1.40;;
8737;SDS011;4405;49.272;8.590;2024-03-29T08:07:36;1.10;;;1.10;;
8737;SDS011;4405;49.272;8.590;2024-03-29T08:10:02;2.77;;;1.27;;
8737;SDS011;4405;49.272;8.590;2024-03-29T08:12:29;1.67;;;1.40;;
8737;SDS011;4405;49.272;8.590;2024-03-29T08:14:55;1.83;;;1.53;;
8737;SDS011;4405;49.272;8.590;2024-03-29T08:17:22;2.07;;;1.90;;
8737;SDS011;4405;49.272;8.590;2024-03-29T08:19:48;3.43;;;3.00;;
8737;SDS011;4405;49.272;8.590;2024-03-29T08:22:16;4.40;;;3.73;;
8737;SDS011;4405;49.272;8.590;2024-03-29T08:24:42;3.00;;;2.67;;
8737;SDS011;4405;49.272;8.590;2024-03-29T08:27:09;5.07;;;2.30;;
8737;SDS011;4405;49.272;8.590;2024-03-29T08:29:35;8.87;;;2.10;;
8737;SDS011;4405;49.272;8.590;2024-03-29T08:32:02;3.00;;;1.90;;
8737;SDS011;4405;49.272;8.590;2024-03-29T08:34:28;3.47;;;1.70;;
8737;SDS011;4405;49.272;8.590;2024-03-29T08:36:59;4.07;;;2.00;;
8737;SDS011;4405;49.272;8.590;2024-03-29T08:39:27;2.33;;;2.17;;
8737;SDS011;4405;49.272;8.590;2024-03-29T08:41:53;2.50;;;2.30;;
8737;SDS011;4405;49.272;8.590;2024-03-29T08:44:20;2.20;;;2.00;;
8737;SDS011;4405;49.272;8.590;2024-03-29T08:46:46;6.23;;;2.20;;
8737;SDS011;4405;49.272;8.590;2024-03-29T08:49:13;2.17;;;1.77;;
8737;SDS011;4405;49.272;8.590;2024-03-29T08:51:39;2.40;;;1.70;;
8737;SDS011;4405;49.272;8.590;2024-03-29T08:54:06;2.37;;;2.17;;
8737;SDS011;4405;49.272;8.590;2024-03-29T08:56:33;2.20;;;2.00;;
8737;SDS011;4405;49.272;8.590;2024-03-29T08:59:02;1.43;;;1.33;;
8737;SDS011;4405;49.272;8.590;2024-03-29T09:01:32;2.40;;;2.20;;
8737;SDS011;4405;49.272;8.590;2024-03-29T09:03:58;2.20;;;1.97;;
8737;SDS011;4405;49.272;8.590;2024-03-29T09:06:25;1.63;;;1.53;;
8737;SDS011;4405;49.272;8.590;2024-03-29T09:08:51;2.43;;;1.60;;
8737;SDS011;4405;49.272;8.590;2024-03-29T09:11:18;2.20;;;1.40;;
8737;SDS011;4405;49.272;8.590;2024-03-29T09:13:45;2.40;;;2.20;;
8737;SDS011;4405;49.272;8.590;2024-03-29T09:16:12;3.33;;;1.90;;
8737;SDS011;4405;49.272;8.590;2024-03-29T09:18:38;2.97;;;1.73;;
8737;SDS011;4405;49.272;8.590;2024-03-29T09:21:04;2.90;;;2.47;;
8737;SDS011;4405;49.272;8.590;2024-03-29T09:23:33;2.27;;;2.07;;
8737;SDS011;4405;49.272;8.590;2024-03-29T09:25:59;3.83;;;2.07;;
8737;SDS011;4405;49.272;8.590;2024-03-29T09:28:25;2.63;;;2.10;;
8737;SDS011;4405;49.272;8.590;2024-03-29T09:30:58;2.93;;;2.23;;
8737;SDS011;4405;49.272;8.590;2024-03-29T09:33:24;1.80;;;1.70;;
8737;SDS011;4405;49.272;8.590;2024-03-29T09:35:51;1.90;;;1.80;;
8737;SDS011;4405;49.272;8.590;2024-03-29T09:38:19;1.90;;;1.80;;
8737;SDS011;4405;49.272;8.590;2024-03-29T09:40:45;2.13;;;1.90;;
8737;SDS011;4405;49.272;8.590;2024-03-29T09:43:12;1.57;;;1.47;;
8737;SDS011;4405;49.272;8.590;2024-03-29T09:45:40;2.63;;;1.40;;
8737;SDS011;4405;49.272;8.590;2024-03-29T09:48:08;1.53;;;1.33;;
8737;SDS011;4405;49.272;8.590;2024-03-29T09:50:35;1.60;;;1.50;;
8737;SDS011;4405;49.272;8.590;2024-03-29T09:53:01;4.23;;;3.83;;
8737;SDS011;4405;49.272;8.590;2024-03-29T09:55:28;2.87;;;1.60;;
8737;SDS011;4405;49.272;8.590;2024-03-29T09:57:55;2.27;;;1.53;;
8737;SDS011;4405;49.272;8.590;2024-03-29T10:00:22;1.80;;;1.70;;
8737;SDS011;4405;49.272;8.590;2024-03-29T10:02:49;1.43;;;1.20;;
8737;SDS011;4405;49.272;8.590;2024-03-29T10:05:17;1.83;;;1.73;;
8737;SDS011;4405;49.272;8.590;2024-03-29T10:07:43;3.00;;;1.50;;
8737;SDS011;4405;49.272;8.590;2024-03-29T10:10:11;1.20;;;1.20;;
8737;SDS011;4405;49.272;8.590;2024-03-29T10:12:37;1.50;;;1.30;;
8737;SDS011;4405;49.272;8.590;2024-03-29T10:15:04;1.60;;;1.50;;
8737;SDS011;4405;49.272;8.590;2024-03-29T10:17:34;2.10;;;1.70;;
8737;SDS011;4405;49.272;8.590;2024-03-29T10:20:03;1.60;;;1.50;;
8737;SDS011;4405;49.272;8.590;2024-03-29T10:22:31;1.30;;;1.30;;
8737;SDS011;4405;49.272;8.590;2024-03-29T10:25:01;1.67;;;1.57;;
8737;SDS011;4405;49.272;8.590;2024-03-29T10:27:29;3.67;;;3.57;;
8737;SDS011;4405;49.272;8.590;2024-03-29T10:29:55;2.47;;;2.27;;
8737;SDS011;4405;49.272;8.590;2024-03-29T10:32:22;1.70;;;1.60;;
8737;SDS011;4405;49.272;8.590;2024-03-29T10:34:48;1.93;;;1.43;;
8737;SDS011;4405;49.272;8.590;2024-03-29T10:37:15;1.90;;;1.80;;
8737;SDS011;4405;49.272;8.590;2024-03-29T10:39:45;1.63;;;1.53;;
8737;SDS011;4405;49.272;8.590;2024-03-29T10:42:12;2.47;;;1.40;;
8737;SDS011;4405;49.272;8.590;2024-03-29T10:44:39;1.60;;;1.50;;
8737;SDS011;4405;49.272;8.590;2024-03-29T10:47:06;1.40;;;1.40;;
8737;SDS011;4405;49.272;8.590;2024-03-29T10:49:34;2.17;;;1.70;;
8737;SDS011;4405;49.272;8.590;2024-03-29T10:52:01;1.60;;;1.50;;
8737;SDS011;4405;49.272;8.590;2024-03-29T10:54:29;2.10;;;2.00;;
8737;SDS011;4405;49.272;8.590;2024-03-29T10:56:59;2.23;;;2.00;;
8737;SDS011;4405;49.272;8.590;2024-03-29T10:59:30;2.07;;;1.97;;
8737;SDS011;4405;49.272;8.590;2024-03-29T11:02:00;1.97;;;1.77;;
8737;SDS011;4405;49.272;8.590;2024-03-29T11:04:29;1.83;;;1.73;;
8737;SDS011;4405;49.272;8.590;2024-03-29T11:06:57;2.60;;;2.40;;
8737;SDS011;4405;49.272;8.590;2024-03-29T11:09:24;2.40;;;2.30;;
8737;SDS011;4405;49.272;8.590;2024-03-29T11:11:54;2.20;;;2.03;;
8737;SDS011;4405;49.272;8.590;2024-03-29T11:14:23;2.03;;;1.80;;
8737;SDS011;4405;49.272;8.590;2024-03-29T11:16:53;2.73;;;1.97;;
8737;SDS011;4405;49.272;8.590;2024-03-29T11:19:22;2.17;;;1.60;;
8737;SDS011;4405;49.272;8.590;2024-03-29T11:21:49;1.90;;;1.80;;
8737;SDS011;4405;49.272;8.590;2024-03-29T11:24:16;3.23;;;2.10;;
8737;SDS011;4405;49.272;8.590;2024-03-29T11:26:44;1.50;;;1.40;;
8737;SDS011;4405;49.272;8.590;2024-03-29T11:29:17;2.20;;;1.70;;
8737;SDS011;4405;49.272;8.590;2024-03-29T11:31:45;1.90;;;1.80;;
8737;SDS011;4405;49.272;8.590;2024-03-29T11:34:12;2.10;;;2.00;;
8737;SDS011;4405;49.272;8.590;2024-03-29T11:36:39;1.93;;;1.83;;
8737;SDS011;4405;49.272;8.590;2024-03-29T11:39:05;1.73;;;1.50;;
8737;SDS011;4405;49.272;8.590;2024-03-29T11:41:33;2.10;;;2.00;;
8737;SDS011;4405;49.272;8.590;2024-03-29T11:43:59;3.37;;;2.53;;
8737;SDS011;4405;49.272;8.590;2024-03-29T11:46:25;2.10;;;2.00;;
8737;SDS011;4405;49.272;8.590;2024-03-29T11:48:53;2.07;;;1.97;;
8737;SDS011;4405;49.272;8.590;2024-03-29T11:51:20;1.60;;;1.50;;
8737;SDS011;4405;49.272;8.590;2024-03-29T11:53:49;2.00;;;1.90;;
8737;SDS011;4405;49.272;8.590;2024-03-29T11:56:16;1.50;;;1.40;;
8737;SDS011;4405;49.272;8.590;2024-03-29T11:58:43;1.80;;;1.50;;
8737;SDS011;4405;49.272;8.590;2024-03-29T12:01:09;1.70;;;1.63;;
8737;SDS011;4405;49.272;8.590;2024-03-29T12:03:39;1.57;;;1.57;;
8737;SDS011;4405;49.272;8.590;2024-03-29T12:06:07;2.23;;;2.13;;
8737;SDS011;4405;49.272;8.590;2024-03-29T12:08:35;2.57;;;2.37;;
8737;SDS011;4405;49.272;8.590;2024-03-29T12:11:02;2.20;;;2.10;;
8737;SDS011;4405;49.272;8.590;2024-03-29T12:13:29;1.90;;;1.80;;
8737;SDS011;4405;49.272;8.590;2024-03-29T12:15:56;1.70;;;1.60;;
8737;SDS011;4405;49.272;8.590;2024-03-29T12:18:23;2.03;;;1.77;;
8737;SDS011;4405;49.272;8.590;2024-03-29T12:20:50;2.90;;;2.63;;
8737;SDS011;4405;49.272;8.590;2024-03-29T12:23:19;2.90;;;2.70;;
8737;SDS011;4405;49.272;8.590;2024-03-29T12:25:46;4.10;;;3.70;;
8737;SDS011;4405;49.272;8.590;2024-03-29T12:28:12;3.07;;;2.80;;
8737;SDS011;4405;49.272;8.590;2024-03-29T12:33:06;4.17;;;3.20;;
8737;SDS011;4405;49.272;8.590;2024-03-29T12:35:34;3.87;;;2.43;;
8737;SDS011;4405;49.272;8.590;2024-03-29T12:38:01;2.60;;;2.40;;
8737;SDS011;4405;49.272;8.590;2024-03-29T12:40:30;2.53;;;2.17;;
8737;SDS011;4405;49.272;8.590;2024-03-29T12:43:01;2.63;;;2.10;;
8737;SDS011;4405;49.272;8.590;2024-03-29T12:45:28;2.00;;;1.90;;
8737;SDS011;4405;49.272;8.590;2024-03-29T12:47:55;2.43;;;2.23;;
8737;SDS011;4405;49.272;8.590;2024-03-29T12:50:24;4.73;;;4.50;;
8737;SDS011;4405;49.272;8.590;2024-03-29T12:52:52;3.50;;;2.23;;
8737;SDS011;4405;49.272;8.590;2024-03-29T12:55:19;2.00;;;1.90;;
8737;SDS011;4405;49.272;8.590;2024-03-29T12:57:47;2.07;;;1.80;;
8737;SDS011;4405;49.272;8.590;2024-03-29T13:00:13;2.20;;;2.00;;
8737;SDS011;4405;49.272;8.590;2024-03-29T13:02:40;2.20;;;2.00;;
8737;SDS011;4405;49.272;8.590;2024-03-29T13:05:06;2.03;;;1.93;;
8737;SDS011;4405;49.272;8.590;2024-03-29T13:07:33;2.97;;;2.20;;
8737;SDS011;4405;49.272;8.590;2024-03-29T13:10:00;2.63;;;2.17;;
8737;SDS011;4405;49.272;8.590;2024-03-29T13:12:28;2.33;;;2.23;;
8737;SDS011;4405;49.272;8.590;2024-03-29T13:14:56;2.43;;;2.30;;
8737;SDS011;4405;49.272;8.590;2024-03-29T13:17:22;2.20;;;2.10;;
8737;SDS011;4405;49.272;8.590;2024-03-29T13:19:49;2.13;;;1.90;;
8737;SDS011;4405;49.272;8.590;2024-03-29T13:22:15;2.47;;;2.20;;
8737;SDS011;4405;49.272;8.590;2024-03-29T13:24:43;3.23;;;2.63;;
8737;SDS011;4405;49.272;8.590;2024-03-29T13:27:09;2.77;;;2.50;;
8737;SDS011;4405;49.272;8.590;2024-03-29T13:29:37;2.00;;;1.90;;
8737;SDS011;4405;49.272;8.590;2024-03-29T13:32:06;2.30;;;2.10;;
8737;SDS011;4405;49.272;8.590;2024-03-29T13:34:33;2.20;;;2.10;;
8737;SDS011;4405;49.272;8.590;2024-03-29T13:36:59;2.37;;;2.17;;
8737;SDS011;4405;49.272;8.590;2024-03-29T13:39:26;2.03;;;1.93;;
8737;SDS011;4405;49.272;8.590;2024-03-29T13:41:52;2.47;;;1.80;;
8737;SDS011;4405;49.272;8.590;2024-03-29T13:44:19;3.10;;;2.13;;
8737;SDS011;4405;49.272;8.590;2024-03-29T13:46:45;8.77;;;7.13;;
8737;SDS011;4405;49.272;8.590;2024-03-29T13:49:13;5.53;;;5.00;;
8737;SDS011;4405;49.272;8.590;2024-03-29T13:51:39;4.17;;;3.30;;
8737;SDS011;4405;49.272;8.590;2024-03-29T13:54:06;3.00;;;2.80;;
8737;SDS011;4405;49.272;8.590;2024-03-29T13:56:32;3.73;;;3.10;;
8737;SDS011;4405;49.272;8.590;2024-03-29T13:58:58;3.30;;;3.00;;
8737;SDS011;4405;49.272;8.590;2024-03-29T14:01:25;3.37;;;2.77;;
8737;SDS011;4405;49.272;8.590;2024-03-29T14:03:51;3.03;;;2.70;;
8737;SDS011;4405;49.272;8.590;2024-03-29T14:06:19;3.80;;;2.80;;
8737;SDS011;4405;49.272;8.590;2024-03-29T14:08:45;3.17;;;2.53;;
8737;SDS011;4405;49.272;8.590;2024-03-29T14:11:12;3.33;;;2.43;;
8737;SDS011;4405;49.272;8.590;2024-03-29T14:13:39;2.17;;;2.07;;
8737;SDS011;4405;49.272;8.590;2024-03-29T14:16:05;2.10;;;2.00;;
8737;SDS011;4405;49.272;8.590;2024-03-29T14:18:32;2.40;;;2.20;;
8737;SDS011;4405;49.272;8.590;2024-03-29T14:21:02;2.20;;;2.07;;
8737;SDS011;4405;49.272;8.590;2024-03-29T14:23:30;2.33;;;2.13;;
8737;SDS011;4405;49.272;8.590;2024-03-29T14:25:56;1.90;;;1.80;;
8737;SDS011;4405;49.272;8.590;2024-03-29T14:28:23;1.77;;;1.73;;
8737;SDS011;4405;49.272;8.590;2024-03-29T14:30:49;2.33;;;2.10;;
8737;SDS011;4405;49.272;8.590;2024-03-29T14:33:15;2.43;;;2.20;;
8737;SDS011;4405;49.272;8.590;2024-03-29T14:35:42;2.30;;;2.10;;
8737;SDS011;4405;49.272;8.590;2024-03-29T14:38:08;2.00;;;1.80;;
8737;SDS011;4405;49.272;8.590;2024-03-29T14:40:36;2.00;;;1.80;;
8737;SDS011;4405;49.272;8.590;2024-03-29T14:43:04;2.53;;;2.00;;
8737;SDS011;4405;49.272;8.590;2024-03-29T14:45:30;2.00;;;1.80;;
8737;SDS011;4405;49.272;8.590;2024-03-29T14:47:56;2.43;;;2.20;;
8737;SDS011;4405;49.272;8.590;2024-03-29T14:50:23;2.40;;;2.20;;
8737;SDS011;4405;49.272;8.590;2024-03-29T14:52:49;1.93;;;1.83;;
8737;SDS011;4405;49.272;8.590;2024-03-29T14:55:15;2.37;;;2.23;;
8737;SDS011;4405;49.272;8.590;2024-03-29T14:57:43;2.30;;;2.10;;
8737;SDS011;4405;49.272;8.590;2024-03-29T15:00:10;2.13;;;1.97;;
8737;SDS011;4405;49.272;8.590;2024-03-29T15:02:36;2.60;;;2.40;;
8737;SDS011;4405;49.272;8.590;2024-03-29T15:05:03;2.30;;;2.20;;
8737;SDS011;4405;49.272;8.590;2024-03-29T15:07:31;2.60;;;2.23;;
8737;SDS011;4405;49.272;8.590;2024-03-29T15:09:57;2.87;;;1.93;;
8737;SDS011;4405;49.272;8.590;2024-03-29T15:12:23;2.80;;;2.60;;
8737;SDS011;4405;49.272;8.590;2024-03-29T15:14:51;3.17;;;2.87;;